createdAt,value
2023-01-20T00:01:36.140Z,100673.97
2023-01-20T00:04:03.595Z,100677.38
2023-01-20T00:06:30.597Z,100677.38
2023-01-20T00:09:00.445Z,100660.84
2023-01-20T00:11:28.342Z,100674.72
2023-01-20T00:13:57.388Z,100681.41
2023-01-20T00:16:24.845Z,100683.13
2023-01-20T00:18:52.254Z,100684.69
2023-01-20T00:21:19.583Z,100694.06
2023-01-20T00:23:47.170Z,100693.06
2023-01-20T00:26:20.592Z,100693.84
2023-01-20T00:28:48.952Z,100697.97
2023-01-20T00:31:22.501Z,100702.97
2023-01-20T00:33:51.468Z,100707.19
2023-01-20T00:36:20.037Z,100709.53
2023-01-20T00:38:47.170Z,100707.75
2023-01-20T00:41:14.579Z,100711.81
2023-01-20T00:43:41.653Z,100710.84
2023-01-20T00:46:09.427Z,100716.69
2023-01-20T00:48:36.521Z,100717.41
2023-01-20T00:51:05.162Z,100720.75
2023-01-20T00:53:32.521Z,100717.22
2023-01-20T00:55:59.498Z,100717.88
2023-01-20T00:58:26.503Z,100720.13
2023-01-20T01:00:55.293Z,100732.13
2023-01-20T01:03:23.028Z,100728.53
2023-01-20T01:05:50.173Z,100735.25
2023-01-20T01:08:17.337Z,100738.56
2023-01-20T01:10:44.275Z,100746.94
2023-01-20T01:13:11.365Z,100745.03
2023-01-20T01:15:38.240Z,100742.25
2023-01-20T01:18:05.206Z,100746.38
2023-01-20T01:20:32.091Z,100759.09
2023-01-20T01:22:59.007Z,100753.00
2023-01-20T01:25:25.898Z,100762.34
2023-01-20T01:27:52.847Z,100755.38
2023-01-20T01:30:19.865Z,100765.69
2023-01-20T01:32:47.543Z,100768.25
2023-01-20T01:35:14.662Z,100768.25
2023-01-20T01:37:41.779Z,100768.25
2023-01-20T01:40:09.515Z,100766.50
2023-01-20T01:42:36.877Z,100765.69
2023-01-20T01:45:30.064Z,100769.97
2023-01-20T01:48:09.772Z,100774.16
2023-01-20T01:50:40.180Z,100778.34
2023-01-20T01:53:08.044Z,100769.69
2023-01-20T01:55:39.320Z,100768.66
2023-01-20T01:58:08.963Z,100763.22
2023-01-20T02:00:36.111Z,100770.19
2023-01-20T02:03:03.084Z,100770.97
2023-01-20T02:05:31.056Z,100757.81
2023-01-20T02:07:59.277Z,100763.72
2023-01-20T02:10:26.460Z,100778.41
2023-01-20T02:12:54.045Z,100769.75
2023-01-20T02:15:28.689Z,100776.47
2023-01-20T02:18:40.598Z,100771.16
2023-01-20T02:21:55.223Z,100788.09
2023-01-20T02:24:53.287Z,100777.66
2023-01-20T02:27:43.133Z,100779.13
2023-01-20T02:30:37.701Z,100780.09
2023-01-20T02:33:13.161Z,100786.09
2023-01-20T02:36:02.338Z,100780.03
2023-01-20T02:38:56.001Z,100782.56
2023-01-20T02:41:42.393Z,100776.56
2023-01-20T02:44:23.070Z,100780.75
2023-01-20T02:47:05.005Z,100782.38
2023-01-20T02:49:59.256Z,100777.06
2023-01-20T02:52:35.875Z,100790.66
2023-01-20T02:55:09.488Z,100791.44
2023-01-20T02:57:45.563Z,100799.97
2023-01-20T03:00:26.234Z,100803.34
2023-01-20T03:02:56.495Z,100796.38
2023-01-20T03:05:34.898Z,100798.91
2023-01-20T03:08:05.831Z,100800.56
2023-01-20T03:10:35.565Z,100806.44
2023-01-20T03:13:33.562Z,100810.56
2023-01-20T03:16:12.835Z,100819.16
2023-01-20T03:18:40.183Z,100825.97
2023-01-20T03:21:09.273Z,100830.31
2023-01-20T03:23:42.489Z,100832.13
2023-01-20T03:26:12.820Z,100835.63
2023-01-20T03:28:42.679Z,100838.22
2023-01-20T03:31:22.378Z,100842.72
2023-01-20T03:33:52.471Z,100847.88
2023-01-20T03:36:22.256Z,100845.31
2023-01-20T03:38:50.081Z,100849.78
2023-01-20T03:41:38.572Z,100849.09
2023-01-20T03:44:27.270Z,100860.34
2023-01-20T03:47:10.761Z,100865.59
2023-01-20T03:49:52.594Z,100863.22
2023-01-20T03:52:48.295Z,100868.56
2023-01-20T03:55:30.889Z,100866.94
2023-01-20T03:58:28.573Z,100873.97
2023-01-20T04:00:57.609Z,100876.69
2023-01-20T04:03:30.150Z,100884.53
2023-01-20T04:06:03.347Z,100885.44
2023-01-20T04:08:40.981Z,100892.41
2023-01-20T04:11:08.932Z,100903.75
2023-01-20T04:13:36.164Z,100897.69
2023-01-20T04:16:09.317Z,100912.59
2023-01-20T04:18:42.269Z,100907.56
2023-01-20T04:21:16.117Z,100918.09
2023-01-20T04:23:54.438Z,100922.53
2023-01-20T04:26:21.393Z,100920.03
2023-01-20T04:28:48.267Z,100927.06
2023-01-20T04:31:29.272Z,100927.09
2023-01-20T04:33:56.826Z,100927.97
2023-01-20T04:36:23.758Z,100940.91
2023-01-20T04:38:50.675Z,100935.81
2023-01-20T04:41:17.581Z,100940.22
2023-01-20T04:43:45.388Z,100952.19
2023-01-20T04:46:13.428Z,100953.06
2023-01-20T04:48:40.349Z,100956.41
2023-01-20T04:51:08.484Z,100959.16
2023-01-20T04:53:35.657Z,100962.59
2023-01-20T04:56:02.535Z,100957.47
2023-01-20T04:58:29.412Z,100964.16
2023-01-20T05:00:56.276Z,100962.72
2023-01-20T05:03:23.210Z,100973.13
2023-01-20T05:05:54.443Z,100963.75
2023-01-20T05:08:21.373Z,100969.91
2023-01-20T05:10:48.543Z,100980.34
2023-01-20T05:13:15.450Z,100985.50
2023-01-20T05:15:44.157Z,100985.50
2023-01-20T05:18:11.267Z,100989.88
2023-01-20T05:20:38.201Z,100990.66
2023-01-20T05:23:05.165Z,100996.53
2023-01-20T05:25:32.393Z,100996.38
2023-01-20T05:28:00.662Z,101005.81
2023-01-20T05:30:27.809Z,100995.47
2023-01-20T05:32:54.750Z,101006.56
2023-01-20T05:35:21.847Z,100995.22
2023-01-20T05:37:48.783Z,101009.91
2023-01-20T05:40:15.798Z,101003.78
2023-01-20T05:42:42.687Z,101012.44
2023-01-20T05:45:09.873Z,101008.16
2023-01-20T05:47:36.837Z,101014.19
2023-01-20T05:50:05.007Z,101020.19
2023-01-20T05:52:32.005Z,101027.13
2023-01-20T05:54:58.876Z,101032.31
2023-01-20T05:57:26.687Z,101029.72
2023-01-20T05:59:55.622Z,101028.94
2023-01-20T06:02:22.636Z,101035.75
2023-01-20T06:04:49.665Z,101046.88
2023-01-20T06:07:16.579Z,101058.78
2023-01-20T06:09:43.500Z,101053.59
2023-01-20T06:12:10.412Z,101059.56
2023-01-20T06:14:37.293Z,101063.81
2023-01-20T06:17:04.401Z,101072.31
2023-01-20T06:19:31.269Z,101069.53
2023-01-20T06:21:58.172Z,101069.66
2023-01-20T06:24:25.054Z,101074.00
2023-01-20T06:26:51.983Z,101083.34
2023-01-20T06:29:18.884Z,101090.88
2023-01-20T06:31:45.836Z,101082.53
2023-01-20T06:34:13.110Z,101089.38
2023-01-20T06:36:40.391Z,101088.56
2023-01-20T06:39:07.355Z,101087.63
2023-01-20T06:41:34.333Z,101088.38
2023-01-20T06:44:01.247Z,101097.72
2023-01-20T06:46:28.161Z,101093.38
2023-01-20T06:49:00.365Z,101102.75
2023-01-20T06:51:29.919Z,101113.03
2023-01-20T06:53:57.285Z,101107.56
2023-01-20T06:56:24.880Z,101121.56
2023-01-20T06:58:52.089Z,101122.31
2023-01-20T07:01:23.968Z,101130.91
2023-01-20T07:03:51.303Z,101131.66
2023-01-20T07:06:31.128Z,101140.25
2023-01-20T07:08:59.905Z,101148.78
2023-01-20T07:11:27.991Z,101156.50
2023-01-20T07:13:55.037Z,101155.50
2023-01-20T07:16:21.939Z,101153.81
2023-01-20T07:18:51.030Z,101168.56
2023-01-20T07:21:18.668Z,101177.16
2023-01-20T07:23:46.162Z,101174.69
2023-01-20T07:26:19.412Z,101178.16
2023-01-20T07:28:47.491Z,101186.81
2023-01-20T07:31:20.946Z,101192.09
2023-01-20T07:33:48.422Z,101191.28
2023-01-20T07:36:16.427Z,101199.13
2023-01-20T07:38:43.347Z,101203.44
2023-01-20T07:41:15.988Z,101209.56
2023-01-20T07:43:48.082Z,101203.59
2023-01-20T07:46:16.215Z,101208.75
2023-01-20T07:48:43.477Z,101215.66
2023-01-20T07:51:13.323Z,101211.16
2023-01-20T07:53:46.550Z,101229.50
2023-01-20T07:56:22.219Z,101230.41
2023-01-20T07:58:50.582Z,101245.09
2023-01-20T08:01:24.987Z,101251.16
2023-01-20T08:03:52.120Z,101261.53
2023-01-20T08:06:22.965Z,101260.78
2023-01-20T08:08:50.226Z,101273.78
2023-01-20T08:11:19.372Z,101276.44
2023-01-20T08:13:46.965Z,101276.53
2023-01-20T08:16:16.403Z,101288.66
2023-01-20T08:18:44.232Z,101287.00
2023-01-20T08:21:30.649Z,101284.50
2023-01-20T08:23:59.523Z,101290.59
2023-01-20T08:26:29.477Z,101290.63
2023-01-20T08:29:05.344Z,101293.38
2023-01-20T08:31:32.354Z,101296.00
2023-01-20T08:33:59.701Z,101294.91
2023-01-20T08:36:33.720Z,101299.50
2023-01-20T08:39:03.111Z,101295.25
2023-01-20T08:41:35.036Z,101297.09
2023-01-20T08:44:07.671Z,101311.94
2023-01-20T08:46:35.529Z,101318.19
2023-01-20T08:49:02.476Z,101316.53
2023-01-20T08:51:32.175Z,101314.91
2023-01-20T08:54:00.154Z,101312.50
2023-01-20T08:56:28.172Z,101334.13
2023-01-20T08:58:57.229Z,101302.97
2023-01-20T09:01:27.874Z,101341.44
2023-01-20T09:04:05.378Z,101331.47
2023-01-20T09:06:49.408Z,101335.91
2023-01-20T09:09:19.637Z,101334.94
2023-01-20T09:11:51.054Z,101336.09
2023-01-20T09:14:24.273Z,101343.06
2023-01-20T09:16:51.630Z,101346.72
2023-01-20T09:19:18.516Z,101346.78
2023-01-20T09:21:45.404Z,101352.94
2023-01-20T09:24:12.352Z,101352.19
2023-01-20T09:26:41.605Z,101350.44
2023-01-20T09:29:13.572Z,101360.84
2023-01-20T09:31:52.769Z,101359.28
2023-01-20T09:34:21.395Z,101372.25
2023-01-20T09:37:19.528Z,101362.00
2023-01-20T09:40:05.460Z,101375.19
2023-01-20T09:43:33.869Z,101376.94
2023-01-20T09:46:44.445Z,101373.56
2023-01-20T09:49:51.444Z,101369.22
2023-01-20T09:52:48.343Z,101371.88
2023-01-20T09:55:43.003Z,101352.75
2023-01-20T09:58:26.105Z,101374.63
2023-01-20T10:01:11.262Z,101379.03
2023-01-20T10:03:50.532Z,101385.09
2023-01-20T10:06:26.446Z,101384.34
2023-01-20T10:09:05.505Z,101387.22
2023-01-20T10:11:43.704Z,101396.94
2023-01-20T10:14:18.407Z,101391.81
2023-01-20T10:17:19.393Z,101397.91
2023-01-20T10:20:02.570Z,101403.09
2023-01-20T10:22:41.127Z,101399.69
2023-01-20T10:25:20.581Z,101401.44
2023-01-20T10:27:56.167Z,101400.69
2023-01-20T10:30:30.596Z,101400.81
2023-01-20T10:33:09.677Z,101404.22
2023-01-20T10:35:42.457Z,101405.31
2023-01-20T10:38:22.824Z,101419.91
2023-01-20T10:41:35.202Z,101415.59
2023-01-20T10:44:03.803Z,101416.53
2023-01-20T10:47:05.073Z,101428.78
2023-01-20T10:50:18.131Z,101428.78
2023-01-20T10:53:15.454Z,101431.50
2023-01-20T10:56:04.027Z,101434.19
2023-01-20T10:58:33.759Z,101448.09
2023-01-20T11:01:06.826Z,101440.41
2023-01-20T11:03:42.356Z,101440.41
2023-01-20T11:06:22.098Z,101436.06
2023-01-20T11:08:49.846Z,101438.59
2023-01-20T11:11:23.223Z,101448.41
2023-01-20T11:13:52.179Z,101448.31
2023-01-20T11:16:28.653Z,101450.22
2023-01-20T11:19:00.823Z,101451.22
2023-01-20T11:21:31.716Z,101467.63
2023-01-20T11:23:59.968Z,101456.63
2023-01-20T11:26:37.064Z,101465.31
2023-01-20T11:29:09.960Z,101471.47
2023-01-20T11:31:48.332Z,101465.47
2023-01-20T11:34:22.661Z,101472.50
2023-01-20T11:37:20.889Z,101472.63
2023-01-20T11:39:50.714Z,101483.13
2023-01-20T11:42:21.416Z,101488.47
2023-01-20T11:44:52.553Z,101481.59
2023-01-20T11:47:26.704Z,101488.38
2023-01-20T11:50:08.695Z,101478.09
2023-01-20T11:52:45.717Z,101494.47
2023-01-20T11:55:16.558Z,101490.19
2023-01-20T11:57:58.755Z,101494.41
2023-01-20T12:00:40.194Z,101488.56
2023-01-20T12:03:47.260Z,101496.34
2023-01-20T12:06:27.351Z,101503.28
2023-01-20T12:09:11.000Z,101509.25
2023-01-20T12:11:50.313Z,101505.69
2023-01-20T12:14:41.047Z,101508.31
2023-01-20T12:17:41.831Z,101510.09
2023-01-20T12:20:55.655Z,101516.19
2023-01-20T12:23:58.281Z,101521.41
2023-01-20T12:26:27.657Z,101528.22
2023-01-20T12:29:30.125Z,101534.13
2023-01-20T12:31:57.083Z,101545.38
2023-01-20T12:34:34.384Z,101533.03
2023-01-20T12:37:31.847Z,101537.47
2023-01-20T12:40:24.929Z,101534.91
2023-01-20T12:43:18.952Z,101531.22
2023-01-20T12:46:56.286Z,101552.19
2023-01-20T12:50:08.495Z,101547.88
2023-01-20T12:53:16.824Z,101552.09
2023-01-20T12:56:27.097Z,101559.84
2023-01-20T12:59:38.076Z,101565.91
2023-01-20T13:02:40.105Z,101553.63
2023-01-20T13:05:24.721Z,101557.28
2023-01-20T13:08:29.844Z,101559.09
2023-01-20T13:11:38.881Z,101550.97
2023-01-20T13:14:21.192Z,101566.66
2023-01-20T13:17:14.409Z,101575.31
2023-01-20T13:19:43.005Z,101571.00
2023-01-20T13:22:22.111Z,101576.19
2023-01-20T13:24:53.983Z,101575.16
2023-01-20T13:27:28.257Z,101582.78
2023-01-20T13:29:58.312Z,101585.38
2023-01-20T13:32:46.175Z,101594.84
2023-01-20T13:35:18.662Z,101598.28
2023-01-20T13:37:57.916Z,101599.03
2023-01-20T13:40:37.015Z,101604.97
2023-01-20T13:43:22.815Z,101603.22
2023-01-20T13:46:17.474Z,101601.44
2023-01-20T13:49:24.820Z,101609.06
2023-01-20T13:51:51.850Z,101610.69
2023-01-20T13:54:37.881Z,101618.53
2023-01-20T13:57:27.973Z,101629.72
2023-01-20T13:59:56.075Z,101627.81
2023-01-20T14:02:28.832Z,101634.00
2023-01-20T14:04:56.231Z,101632.19
2023-01-20T14:07:32.774Z,101635.53
2023-01-20T14:10:01.781Z,101634.66
2023-01-20T14:12:28.840Z,101644.91
2023-01-20T14:14:55.827Z,101641.44
2023-01-20T14:17:24.572Z,101658.56
2023-01-20T14:19:54.627Z,101659.19
2023-01-20T14:22:31.803Z,101664.19
2023-01-20T14:25:00.658Z,101669.31
2023-01-20T14:27:32.085Z,101680.41
2023-01-20T14:30:20.287Z,101680.19
2023-01-20T14:32:47.183Z,101685.16
2023-01-20T14:35:32.217Z,101689.31
2023-01-20T14:37:59.891Z,101689.31
2023-01-20T14:40:31.473Z,101662.69
2023-01-20T14:43:20.460Z,101694.38
2023-01-20T14:45:51.519Z,101699.56
2023-01-20T14:48:33.479Z,101700.38
2023-01-20T14:51:04.041Z,101715.84
2023-01-20T14:53:30.993Z,101714.78
2023-01-20T14:56:03.207Z,101727.81
2023-01-20T14:58:30.639Z,101727.84
2023-01-20T15:01:02.519Z,101737.31
2023-01-20T15:03:30.676Z,101739.88
2023-01-20T15:06:18.048Z,101739.84
2023-01-20T15:09:04.310Z,101750.94
2023-01-20T15:11:32.845Z,101750.06
2023-01-20T15:14:02.679Z,101754.34
2023-01-20T15:16:36.467Z,101759.56
2023-01-20T15:19:16.147Z,101762.91
2023-01-20T15:22:12.603Z,101762.84
2023-01-20T15:24:40.326Z,101766.97
2023-01-20T15:27:30.458Z,101771.13
2023-01-20T15:30:00.302Z,101772.81
2023-01-20T15:32:27.183Z,101769.41
2023-01-20T15:34:54.063Z,101776.34
2023-01-20T15:37:20.982Z,101778.84
2023-01-20T15:39:47.877Z,101785.63
2023-01-20T15:42:15.372Z,101789.03
2023-01-20T15:44:42.321Z,101788.97
2023-01-20T15:47:35.731Z,101788.00
2023-01-20T15:50:02.612Z,101794.06
2023-01-20T15:52:29.571Z,101796.69
2023-01-20T15:54:56.458Z,101801.94
2023-01-20T15:57:23.489Z,101806.28
2023-01-20T15:59:50.399Z,101808.06
2023-01-20T16:02:23.972Z,101825.22
2023-01-20T16:04:51.234Z,101820.88
2023-01-20T16:07:20.681Z,101844.97
2023-01-20T16:09:47.640Z,101831.72
2023-01-20T16:12:17.783Z,101836.38
2023-01-20T16:14:45.284Z,101835.19
2023-01-20T16:17:15.868Z,101843.88
2023-01-20T16:19:42.780Z,101842.94
2023-01-20T16:22:10.617Z,101855.91
2023-01-20T16:24:38.238Z,101845.66
2023-01-20T16:27:14.888Z,101855.91
2023-01-20T16:29:41.777Z,101868.72
2023-01-20T16:32:08.678Z,101876.41
2023-01-20T16:34:35.609Z,101883.81
2023-01-20T16:37:02.556Z,101894.03
2023-01-20T16:39:29.621Z,101894.13
2023-01-20T16:41:56.531Z,101888.00
2023-01-20T16:44:23.406Z,101912.50
2023-01-20T16:46:50.299Z,101909.91
2023-01-20T16:49:17.921Z,101920.38
2023-01-20T16:51:44.821Z,101921.25
2023-01-20T16:54:11.900Z,101924.81
2023-01-20T16:56:40.152Z,101927.44
2023-01-20T16:59:08.060Z,101930.09
2023-01-20T17:01:34.955Z,101936.22
2023-01-20T17:04:03.082Z,101934.53
2023-01-20T17:06:34.775Z,101942.13
2023-01-20T17:09:04.998Z,101936.09
2023-01-20T17:11:38.351Z,101956.19
2023-01-20T17:14:08.762Z,101956.19
2023-01-20T17:16:36.145Z,101959.66
2023-01-20T17:19:03.574Z,101962.91
2023-01-20T17:21:32.796Z,101966.06
2023-01-20T17:24:02.912Z,101972.75
2023-01-20T17:26:30.624Z,101969.72
2023-01-20T17:29:03.520Z,101985.13
2023-01-20T17:31:36.532Z,101984.81
2023-01-20T17:34:07.411Z,101995.53
2023-01-20T17:36:34.702Z,101991.81
2023-01-20T17:39:03.888Z,101995.22
2023-01-20T17:41:30.855Z,102000.44
2023-01-20T17:43:57.771Z,102001.66
2023-01-20T17:46:28.749Z,102001.19
2023-01-20T17:49:04.726Z,102013.00
2023-01-20T17:51:31.694Z,102011.88
2023-01-20T17:54:01.224Z,102015.84
2023-01-20T17:56:30.159Z,102011.22
2023-01-20T17:58:57.085Z,102021.22
2023-01-20T18:01:29.930Z,102025.50
2023-01-20T18:04:00.986Z,102025.97
2023-01-20T18:06:28.924Z,102030.31
2023-01-20T18:08:59.183Z,102032.88
2023-01-20T18:11:30.128Z,102035.72
2023-01-20T18:13:59.346Z,102029.94
2023-01-20T18:16:33.478Z,102035.44
2023-01-20T18:19:01.260Z,102040.94
2023-01-20T18:21:37.123Z,102044.81
2023-01-20T18:24:07.359Z,102045.06
2023-01-20T18:26:37.207Z,102041.94
2023-01-20T18:29:13.008Z,102063.75
2023-01-20T18:31:40.135Z,102051.66
2023-01-20T18:34:10.694Z,102064.16
2023-01-20T18:36:40.607Z,102068.59
2023-01-20T18:39:14.548Z,102076.47
2023-01-20T18:41:41.501Z,102074.06
2023-01-20T18:44:08.826Z,102077.63
2023-01-20T18:46:36.010Z,102085.25
2023-01-20T18:49:03.445Z,102079.16
2023-01-20T18:51:31.340Z,102087.03
2023-01-20T18:54:05.857Z,102092.34
2023-01-20T18:56:33.512Z,102100.19
2023-01-20T18:59:02.140Z,102099.38
2023-01-20T19:01:33.787Z,102099.53
2023-01-20T19:04:03.496Z,102095.28
2023-01-20T19:06:35.103Z,102101.94
2023-01-20T19:09:03.137Z,102100.66
2023-01-20T19:11:34.263Z,102105.56
2023-01-20T19:14:01.353Z,102110.56
2023-01-20T19:16:32.593Z,102106.03
2023-01-20T19:19:06.340Z,102107.22
2023-01-20T19:21:36.125Z,102116.66
2023-01-20T19:24:06.122Z,102113.09
2023-01-20T19:26:36.571Z,102111.16
2023-01-20T19:29:07.017Z,102119.94
2023-01-20T19:31:38.037Z,102114.06
2023-01-20T19:34:06.723Z,102121.34
2023-01-20T19:36:33.851Z,102117.16
2023-01-20T19:39:01.083Z,102124.88
2023-01-20T19:41:33.341Z,102116.44
2023-01-20T19:44:03.130Z,102132.88
2023-01-20T19:46:33.809Z,102136.88
2023-01-20T19:49:02.232Z,102138.56
2023-01-20T19:51:31.129Z,102135.03
2023-01-20T19:54:00.030Z,102156.53
2023-01-20T19:56:30.331Z,102153.44
2023-01-20T19:58:57.529Z,102151.41
2023-01-20T20:01:31.332Z,102165.06
2023-01-20T20:03:59.439Z,102189.19
2023-01-20T20:06:46.196Z,102177.78
2023-01-20T20:09:18.821Z,102175.16
2023-01-20T20:11:46.959Z,102182.16
2023-01-20T20:14:17.939Z,102181.97
2023-01-20T20:16:45.218Z,102190.50
2023-01-20T20:19:16.116Z,102193.19
2023-01-20T20:21:43.796Z,102194.06
2023-01-20T20:24:13.468Z,102196.38
2023-01-20T20:26:40.673Z,102198.84
2023-01-20T20:29:08.285Z,102202.25
2023-01-20T20:31:37.618Z,102206.16
2023-01-20T20:34:11.561Z,102192.91
2023-01-20T20:36:39.678Z,102212.19
2023-01-20T20:39:07.842Z,102213.53
2023-01-20T20:41:36.534Z,102211.47
2023-01-20T20:44:03.996Z,102218.56
2023-01-20T20:46:31.281Z,102226.56
2023-01-20T20:49:00.960Z,102216.97
2023-01-20T20:51:34.139Z,102219.41
2023-01-20T20:54:02.839Z,102234.19
2023-01-20T20:56:33.900Z,102219.19
2023-01-20T20:59:03.548Z,102239.13
2023-01-20T21:01:33.381Z,102242.38
2023-01-20T21:04:01.436Z,102241.28
2023-01-20T21:06:29.630Z,102245.56
2023-01-20T21:08:56.991Z,102246.44
2023-01-20T21:11:24.874Z,102242.88
2023-01-20T21:13:52.742Z,102245.19
2023-01-20T21:16:22.925Z,102243.25
2023-01-20T21:18:52.194Z,102247.31
2023-01-20T21:21:20.363Z,102250.16
2023-01-20T21:23:58.575Z,102254.53
2023-01-20T21:26:30.056Z,102260.56
2023-01-20T21:29:00.181Z,102251.50
2023-01-20T21:31:27.174Z,102260.41
2023-01-20T21:33:58.314Z,102263.13
2023-01-20T21:36:26.295Z,102267.47
2023-01-20T21:38:53.214Z,102267.75
2023-01-20T21:41:20.202Z,102278.38
2023-01-20T21:44:06.411Z,102277.34
2023-01-20T21:46:39.829Z,102276.19
2023-01-20T21:49:28.626Z,102275.22
2023-01-20T21:52:15.090Z,102287.03
2023-01-20T21:54:42.226Z,102277.97
2023-01-20T21:57:09.363Z,102290.38
2023-01-20T21:59:36.767Z,102295.91
2023-01-20T22:02:03.756Z,102296.63
2023-01-20T22:04:30.664Z,102305.41
2023-01-20T22:06:57.677Z,102307.81
2023-01-20T22:09:24.596Z,102301.78
2023-01-20T22:11:51.521Z,102305.13
2023-01-20T22:14:18.442Z,102305.13
2023-01-20T22:16:45.392Z,102308.78
2023-01-20T22:19:13.969Z,102315.53
2023-01-20T22:21:41.277Z,102303.00
2023-01-20T22:24:09.093Z,102314.38
2023-01-20T22:26:36.037Z,102317.13
2023-01-20T22:29:03.277Z,102330.38
2023-01-20T22:31:31.792Z,102320.56
2023-01-20T22:34:04.178Z,102321.78
2023-01-20T22:36:32.046Z,102329.00
2023-01-20T22:38:59.495Z,102324.09
2023-01-20T22:41:26.758Z,102325.78
2023-01-20T22:43:55.220Z,102322.66
2023-01-20T22:46:24.577Z,102325.53
2023-01-20T22:48:51.532Z,102331.06
2023-01-20T22:51:21.777Z,102320.09
2023-01-20T22:53:49.612Z,102324.63
2023-01-20T22:56:22.930Z,102328.97
2023-01-20T22:58:49.810Z,102330.59
2023-01-20T23:01:19.061Z,102329.25
2023-01-20T23:03:46.922Z,102317.00
2023-01-20T23:06:14.840Z,102330.22
2023-01-20T23:08:42.065Z,102336.38
2023-01-20T23:11:14.938Z,102338.13
2023-01-20T23:13:42.487Z,102339.09
2023-01-20T23:16:15.092Z,102346.84
2023-01-20T23:18:42.373Z,102351.13
2023-01-20T23:21:09.257Z,102350.22
2023-01-20T23:23:36.805Z,102338.66
2023-01-20T23:26:06.441Z,102349.25
2023-01-20T23:28:35.170Z,102345.88
2023-01-20T23:31:07.933Z,102357.88
2023-01-20T23:33:35.358Z,102364.72
2023-01-20T23:36:07.504Z,102366.84
2023-01-20T23:38:34.450Z,102380.09
2023-01-20T23:41:02.364Z,102377.75
2023-01-20T23:43:30.597Z,102390.59
2023-01-20T23:45:59.192Z,102384.63
2023-01-20T23:48:26.724Z,102385.69
2023-01-20T23:50:54.708Z,102383.13
2023-01-20T23:53:22.161Z,102389.88
2023-01-20T23:55:49.055Z,102384.28
2023-01-20T23:58:15.972Z,102390.84
